sensor_id;sensor_type;location;lat;lon;timestamp;pressure;altitude;pressure_sealevel;temperature;humidity
34586;BME280;20816;50.950;11.108;2023-08-20T00:01:32;98839.84;;;23.77;100.00
34586;BME280;20816;50.950;11.108;2023-08-20T00:03:59;98834.41;;;23.79;100.00
34586;BME280;20816;50.950;11.108;2023-08-20T00:06:27;98840.50;;;23.81;100.00
34586;BME280;20816;50.950;11.108;2023-08-20T00:08:54;98836.75;;;23.83;100.00
34586;BME280;20816;50.950;11.108;2023-08-20T00:11:20;98840.28;;;23.84;100.00
34586;BME280;20816;50.950;11.108;2023-08-20T00:13:47;98837.72;;;23.82;100.00
34586;BME280;20816;50.950;11.108;2023-08-20T00:16:14;98837.94;;;23.79;100.00
34586;BME280;20816;50.950;11.108;2023-08-20T00:18:41;98842.47;;;23.79;100.00
34586;BME280;20816;50.950;11.108;2023-08-20T00:21:08;98841.19;;;23.71;100.00
34586;BME280;20816;50.950;11.108;2023-08-20T00:23:36;98850.22;;;23.70;100.00
34586;BME280;20816;50.950;11.108;2023-08-20T00:26:03;98843.09;;;23.69;100.00
34586;BME280;20816;50.950;11.108;2023-08-20T00:28:30;98848.56;;;23.68;100.00
34586;BME280;20816;50.950;11.108;2023-08-20T00:30:57;98847.94;;;23.64;100.00
34586;BME280;20816;50.950;11.108;2023-08-20T00:33:24;98848.34;;;23.58;100.00
34586;BME280;20816;50.950;11.108;2023-08-20T00:35:50;98849.53;;;23.54;100.00
34586;BME280;20816;50.950;11.108;2023-08-20T00:38:17;98845.88;;;23.55;100.00
34586;BME280;20816;50.950;11.108;2023-08-20T00:40:44;98841.38;;;23.56;100.00
34586;BME280;20816;50.950;11.108;2023-08-20T00:43:11;98850.47;;;23.53;100.00
34586;BME280;20816;50.950;11.108;2023-08-20T00:45:38;98851.69;;;23.49;100.00
34586;BME280;20816;50.950;11.108;2023-08-20T00:48:07;98849.31;;;23.44;100.00
34586;BME280;20816;50.950;11.108;2023-08-20T00:50:33;98846.75;;;23.43;100.00
34586;BME280;20816;50.950;11.108;2023-08-20T00:53:01;98851.38;;;23.41;100.00
34586;BME280;20816;50.950;11.108;2023-08-20T00:55:28;98858.97;;;23.34;100.00
34586;BME280;20816;50.950;11.108;2023-08-20T00:57:55;98852.53;;;23.37;100.00
34586;BME280;20816;50.950;11.108;2023-08-20T01:00:23;98852.34;;;23.40;100.00
34586;BME280;20816;50.950;11.108;2023-08-20T01:02:50;98857.69;;;23.40;100.00
34586;BME280;20816;50.950;11.108;2023-08-20T01:05:18;98860.50;;;23.38;100.00
34586;BME280;20816;50.950;11.108;2023-08-20T01:08:27;98853.19;;;23.28;100.00
34586;BME280;20816;50.950;11.108;2023-08-20T01:13:32;98849.97;;;23.23;100.00
34586;BME280;20816;50.950;11.108;2023-08-20T01:15:59;98850.50;;;23.28;100.00
34586;BME280;20816;50.950;11.108;2023-08-20T01:18:26;98850.84;;;23.23;100.00
34586;BME280;20816;50.950;11.108;2023-08-20T01:20:58;98848.47;;;23.18;100.00
34586;BME280;20816;50.950;11.108;2023-08-20T01:23:39;98852.84;;;23.19;100.00
34586;BME280;20816;50.950;11.108;2023-08-20T01:27:19;98852.84;;;23.19;100.00
34586;BME280;20816;50.950;11.108;2023-08-20T01:29:09;98857.88;;;23.11;100.00
34586;BME280;20816;50.950;11.108;2023-08-20T01:31:38;98861.34;;;23.13;100.00
34586;BME280;20816;50.950;11.108;2023-08-20T01:34:05;98852.53;;;23.11;100.00
34586;BME280;20816;50.950;11.108;2023-08-20T01:36:32;98853.81;;;23.06;100.00
34586;BME280;20816;50.950;11.108;2023-08-20T01:38:58;98855.84;;;23.02;100.00
34586;BME280;20816;50.950;11.108;2023-08-20T01:41:25;98850.47;;;23.02;100.00
34586;BME280;20816;50.950;11.108;2023-08-20T01:43:52;98856.69;;;23.03;100.00
34586;BME280;20816;50.950;11.108;2023-08-20T01:46:18;98858.53;;;23.02;100.00
34586;BME280;20816;50.950;11.108;2023-08-20T01:48:45;98863.69;;;23.05;100.00
34586;BME280;20816;50.950;11.108;2023-08-20T01:51:12;98864.63;;;23.04;100.00
34586;BME280;20816;50.950;11.108;2023-08-20T01:53:38;98864.84;;;23.01;100.00
34586;BME280;20816;50.950;11.108;2023-08-20T01:56:11;98866.03;;;22.97;100.00
34586;BME280;20816;50.950;11.108;2023-08-20T01:58:39;98871.81;;;22.91;100.00
34586;BME280;20816;50.950;11.108;2023-08-20T02:01:06;98871.06;;;22.89;100.00
34586;BME280;20816;50.950;11.108;2023-08-20T02:03:35;98864.75;;;22.90;100.00
34586;BME280;20816;50.950;11.108;2023-08-20T02:06:02;98860.34;;;22.89;100.00
34586;BME280;20816;50.950;11.108;2023-08-20T02:08:29;98859.16;;;22.93;100.00
34586;BME280;20816;50.950;11.108;2023-08-20T02:11:03;98866.88;;;22.85;100.00
34586;BME280;20816;50.950;11.108;2023-08-20T02:13:31;98874.53;;;22.77;100.00
34586;BME280;20816;50.950;11.108;2023-08-20T02:15:59;98873.22;;;22.70;100.00
34586;BME280;20816;50.950;11.108;2023-08-20T02:18:26;98876.41;;;22.62;100.00
34586;BME280;20816;50.950;11.108;2023-08-20T02:20:53;98880.56;;;22.53;100.00
34586;BME280;20816;50.950;11.108;2023-08-20T02:23:19;98885.38;;;22.48;100.00
34586;BME280;20816;50.950;11.108;2023-08-20T02:25:47;98885.56;;;22.45;100.00
34586;BME280;20816;50.950;11.108;2023-08-20T02:28:13;98885.03;;;22.40;100.00
34586;BME280;20816;50.950;11.108;2023-08-20T02:30:42;98884.25;;;22.38;100.00
34586;BME280;20816;50.950;11.108;2023-08-20T02:33:09;98893.25;;;22.37;100.00
34586;BME280;20816;50.950;11.108;2023-08-20T02:35:37;98902.44;;;22.33;100.00
34586;BME280;20816;50.950;11.108;2023-08-20T02:38:05;98892.88;;;22.29;100.00
34586;BME280;20816;50.950;11.108;2023-08-20T02:40:32;98895.66;;;22.27;100.00
34586;BME280;20816;50.950;11.108;2023-08-20T02:42:58;98893.09;;;22.26;100.00
34586;BME280;20816;50.950;11.108;2023-08-20T02:45:25;98895.03;;;22.24;100.00
34586;BME280;20816;50.950;11.108;2023-08-20T02:47:52;98891.66;;;22.20;100.00
34586;BME280;20816;50.950;11.108;2023-08-20T02:50:19;98886.97;;;22.24;100.00
34586;BME280;20816;50.950;11.108;2023-08-20T02:52:45;98884.47;;;22.21;100.00
34586;BME280;20816;50.950;11.108;2023-08-20T02:55:12;98885.44;;;22.20;100.00
34586;BME280;20816;50.950;11.108;2023-08-20T03:00:06;98893.28;;;22.23;100.00
34586;BME280;20816;50.950;11.108;2023-08-20T03:02:37;98887.38;;;22.18;100.00
34586;BME280;20816;50.950;11.108;2023-08-20T03:05:04;98887.75;;;22.12;100.00
34586;BME280;20816;50.950;11.108;2023-08-20T03:07:32;98897.97;;;22.05;100.00
34586;BME280;20816;50.950;11.108;2023-08-20T03:09:59;98889.78;;;21.94;100.00
34586;BME280;20816;50.950;11.108;2023-08-20T03:12:26;98881.16;;;21.89;100.00
34586;BME280;20816;50.950;11.108;2023-08-20T03:14:53;98886.88;;;21.82;100.00
34586;BME280;20816;50.950;11.108;2023-08-20T03:17:19;98889.13;;;21.76;100.00
34586;BME280;20816;50.950;11.108;2023-08-20T03:19:58;98894.53;;;21.74;100.00
34586;BME280;20816;50.950;11.108;2023-08-20T03:22:26;98895.81;;;21.69;100.00
34586;BME280;20816;50.950;11.108;2023-08-20T03:24:53;98905.34;;;21.73;100.00
34586;BME280;20816;50.950;11.108;2023-08-20T03:27:20;98906.69;;;21.66;100.00
34586;BME280;20816;50.950;11.108;2023-08-20T03:29:46;98903.25;;;21.64;100.00
34586;BME280;20816;50.950;11.108;2023-08-20T03:32:14;98903.81;;;21.54;100.00
34586;BME280;20816;50.950;11.108;2023-08-20T03:34:41;98899.34;;;21.55;100.00
34586;BME280;20816;50.950;11.108;2023-08-20T03:37:07;98906.31;;;21.43;100.00
34586;BME280;20816;50.950;11.108;2023-08-20T03:39:34;98901.31;;;21.37;100.00
34586;BME280;20816;50.950;11.108;2023-08-20T03:42:01;98908.59;;;21.35;100.00
34586;BME280;20816;50.950;11.108;2023-08-20T03:44:28;98908.59;;;21.35;100.00
34586;BME280;20816;50.950;11.108;2023-08-20T03:46:56;98907.72;;;21.35;100.00
34586;BME280;20816;50.950;11.108;2023-08-20T03:49:23;98908.59;;;21.35;100.00
34586;BME280;20816;50.950;11.108;2023-08-20T03:51:49;98899.88;;;21.32;100.00
34586;BME280;20816;50.950;11.108;2023-08-20T03:54:16;98914.31;;;21.29;100.00
34586;BME280;20816;50.950;11.108;2023-08-20T03:56:43;98910.03;;;21.25;100.00
34586;BME280;20816;50.950;11.108;2023-08-20T03:59:09;98920.69;;;21.26;100.00
34586;BME280;20816;50.950;11.108;2023-08-20T04:01:36;98916.22;;;21.27;100.00
34586;BME280;20816;50.950;11.108;2023-08-20T04:04:04;98925.16;;;21.26;100.00
34586;BME280;20816;50.950;11.108;2023-08-20T04:06:31;98934.84;;;21.29;100.00
34586;BME280;20816;50.950;11.108;2023-08-20T04:08:57;98930.34;;;21.29;100.00
34586;BME280;20816;50.950;11.108;2023-08-20T04:11:24;98922.44;;;21.27;100.00
34586;BME280;20816;50.950;11.108;2023-08-20T04:13:51;98914.72;;;21.21;100.00
34586;BME280;20816;50.950;11.108;2023-08-20T04:16:17;98914.13;;;21.16;100.00
34586;BME280;20816;50.950;11.108;2023-08-20T04:18:44;98915.19;;;21.14;100.00
34586;BME280;20816;50.950;11.108;2023-08-20T04:21:11;98918.63;;;21.16;100.00
34586;BME280;20816;50.950;11.108;2023-08-20T04:23:38;98916.91;;;21.15;100.00
34586;BME280;20816;50.950;11.108;2023-08-20T04:26:05;98919.78;;;21.12;100.00
34586;BME280;20816;50.950;11.108;2023-08-20T04:28:31;98915.28;;;21.12;100.00
34586;BME280;20816;50.950;11.108;2023-08-20T04:30:58;98911.56;;;21.15;100.00
34586;BME280;20816;50.950;11.108;2023-08-20T04:33:27;98907.94;;;21.16;100.00
34586;BME280;20816;50.950;11.108;2023-08-20T04:35:54;98920.34;;;21.17;100.00
34586;BME280;20816;50.950;11.108;2023-08-20T04:38:20;98931.63;;;21.22;100.00
34586;BME280;20816;50.950;11.108;2023-08-20T04:40:48;98933.34;;;21.23;100.00
34586;BME280;20816;50.950;11.108;2023-08-20T04:43:15;98923.22;;;21.14;100.00
34586;BME280;20816;50.950;11.108;2023-08-20T04:45:42;98917.25;;;21.09;100.00
34586;BME280;20816;50.950;11.108;2023-08-20T04:48:08;98920.72;;;21.11;100.00
34586;BME280;20816;50.950;11.108;2023-08-20T04:50:35;98922.09;;;21.18;100.00
34586;BME280;20816;50.950;11.108;2023-08-20T04:53:02;98919.66;;;21.29;100.00
34586;BME280;20816;50.950;11.108;2023-08-20T04:55:29;98920.25;;;21.34;100.00
34586;BME280;20816;50.950;11.108;2023-08-20T04:57:56;98920.91;;;21.38;100.00
34586;BME280;20816;50.950;11.108;2023-08-20T05:00:22;98925.09;;;21.42;100.00
34586;BME280;20816;50.950;11.108;2023-08-20T05:02:49;98914.88;;;21.48;100.00
34586;BME280;20816;50.950;11.108;2023-08-20T05:05:16;98921.78;;;21.52;100.00
34586;BME280;20816;50.950;11.108;2023-08-20T05:07:44;98934.59;;;21.62;100.00
34586;BME280;20816;50.950;11.108;2023-08-20T05:10:10;98942.72;;;21.74;100.00
34586;BME280;20816;50.950;11.108;2023-08-20T05:12:37;98944.75;;;21.85;100.00
34586;BME280;20816;50.950;11.108;2023-08-20T05:15:04;98952.56;;;21.88;100.00
34586;BME280;20816;50.950;11.108;2023-08-20T05:17:31;98944.75;;;21.99;100.00
34586;BME280;20816;50.950;11.108;2023-08-20T05:19:58;98942.72;;;22.03;100.00
34586;BME280;20816;50.950;11.108;2023-08-20T05:22:25;98948.06;;;22.03;100.00
34586;BME280;20816;50.950;11.108;2023-08-20T05:24:51;98950.00;;;22.01;100.00
34586;BME280;20816;50.950;11.108;2023-08-20T05:27:18;98954.28;;;22.03;100.00
34586;BME280;20816;50.950;11.108;2023-08-20T05:29:45;98954.50;;;22.15;100.00
34586;BME280;20816;50.950;11.108;2023-08-20T05:32:12;98954.47;;;22.29;100.00
34586;BME280;20816;50.950;11.108;2023-08-20T05:34:39;98959.06;;;22.41;100.00
34586;BME280;20816;50.950;11.108;2023-08-20T05:37:05;98957.88;;;22.59;100.00
34586;BME280;20816;50.950;11.108;2023-08-20T05:39:42;98955.78;;;22.77;100.00
34586;BME280;20816;50.950;11.108;2023-08-20T05:42:10;98963.16;;;22.88;100.00
34586;BME280;20816;50.950;11.108;2023-08-20T05:44:37;98964.81;;;23.03;100.00
34586;BME280;20816;50.950;11.108;2023-08-20T05:47:03;98970.34;;;23.27;100.00
34586;BME280;20816;50.950;11.108;2023-08-20T05:49:32;98974.03;;;23.52;100.00
34586;BME280;20816;50.950;11.108;2023-08-20T05:51:59;98963.47;;;23.75;100.00
34586;BME280;20816;50.950;11.108;2023-08-20T05:54:25;98971.72;;;23.98;100.00
34586;BME280;20816;50.950;11.108;2023-08-20T05:56:52;98981.69;;;24.21;100.00
34586;BME280;20816;50.950;11.108;2023-08-20T05:59:19;98979.78;;;24.36;100.00
34586;BME280;20816;50.950;11.108;2023-08-20T06:01:46;98984.97;;;24.50;100.00
34586;BME280;20816;50.950;11.108;2023-08-20T06:04:12;98975.25;;;24.73;100.00
34586;BME280;20816;50.950;11.108;2023-08-20T06:06:39;98984.63;;;24.92;100.00
34586;BME280;20816;50.950;11.108;2023-08-20T06:09:07;98982.53;;;25.08;100.00
34586;BME280;20816;50.950;11.108;2023-08-20T06:11:35;98985.97;;;25.34;100.00
34586;BME280;20816;50.950;11.108;2023-08-20T06:14:02;98986.50;;;25.50;100.00
34586;BME280;20816;50.950;11.108;2023-08-20T06:16:29;98984.22;;;25.68;100.00
34586;BME280;20816;50.950;11.108;2023-08-20T06:18:57;98993.59;;;25.75;100.00
34586;BME280;20816;50.950;11.108;2023-08-20T06:21:28;99001.97;;;25.70;99.46
34586;BME280;20816;50.950;11.108;2023-08-20T06:23:55;98988.75;;;25.67;98.43
34586;BME280;20816;50.950;11.108;2023-08-20T06:26:22;98990.78;;;25.53;99.32
34586;BME280;20816;50.950;11.108;2023-08-20T06:28:49;98991.19;;;25.59;100.00
34586;BME280;20816;50.950;11.108;2023-08-20T06:31:15;98999.47;;;25.91;100.00
34586;BME280;20816;50.950;11.108;2023-08-20T06:33:42;99012.72;;;26.17;97.95
34586;BME280;20816;50.950;11.108;2023-08-20T06:36:09;99008.06;;;26.08;98.29
34586;BME280;20816;50.950;11.108;2023-08-20T06:38:35;99008.03;;;25.85;99.46
34586;BME280;20816;50.950;11.108;2023-08-20T06:41:02;99010.59;;;25.76;100.00
34586;BME280;20816;50.950;11.108;2023-08-20T06:43:29;99020.25;;;25.78;100.00
34586;BME280;20816;50.950;11.108;2023-08-20T06:45:56;99014.03;;;25.54;100.00
34586;BME280;20816;50.950;11.108;2023-08-20T06:48:23;99008.56;;;25.31;100.00
34586;BME280;20816;50.950;11.108;2023-08-20T06:50:51;99005.31;;;25.15;100.00
34586;BME280;20816;50.950;11.108;2023-08-20T06:53:18;99008.25;;;24.99;100.00
34586;BME280;20816;50.950;11.108;2023-08-20T06:55:44;99014.56;;;24.87;100.00
34586;BME280;20816;50.950;11.108;2023-08-20T06:58:11;99015.66;;;24.84;100.00
34586;BME280;20816;50.950;11.108;2023-08-20T07:00:38;99009.91;;;24.65;100.00
34586;BME280;20816;50.950;11.108;2023-08-20T07:03:05;99018.41;;;24.59;100.00
34586;BME280;20816;50.950;11.108;2023-08-20T07:05:32;99017.66;;;24.57;100.00
34586;BME280;20816;50.950;11.108;2023-08-20T07:07:59;99021.38;;;24.67;100.00
34586;BME280;20816;50.950;11.108;2023-08-20T07:10:25;99020.88;;;24.62;100.00
34586;BME280;20816;50.950;11.108;2023-08-20T07:12:52;99025.91;;;24.67;100.00
34586;BME280;20816;50.950;11.108;2023-08-20T07:15:19;99033.00;;;24.68;100.00
34586;BME280;20816;50.950;11.108;2023-08-20T07:17:47;99042.81;;;24.56;100.00
34586;BME280;20816;50.950;11.108;2023-08-20T07:20:13;99049.72;;;24.35;100.00
34586;BME280;20816;50.950;11.108;2023-08-20T07:22:40;99050.47;;;24.11;100.00
34586;BME280;20816;50.950;11.108;2023-08-20T07:25:08;99049.50;;;24.12;100.00
34586;BME280;20816;50.950;11.108;2023-08-20T07:27:35;99055.22;;;24.33;100.00
34586;BME280;20816;50.950;11.108;2023-08-20T07:30:02;99059.06;;;24.29;100.00
34586;BME280;20816;50.950;11.108;2023-08-20T07:32:29;99060.66;;;24.31;100.00
34586;BME280;20816;50.950;11.108;2023-08-20T07:34:56;99062.31;;;24.34;100.00
34586;BME280;20816;50.950;11.108;2023-08-20T07:37:24;99059.53;;;24.36;100.00
34586;BME280;20816;50.950;11.108;2023-08-20T07:39:50;99055.59;;;24.65;100.00
34586;BME280;20816;50.950;11.108;2023-08-20T07:42:17;99056.31;;;24.80;100.00
34586;BME280;20816;50.950;11.108;2023-08-20T07:44:44;99061.84;;;25.02;100.00
34586;BME280;20816;50.950;11.108;2023-08-20T07:47:11;99058.44;;;24.87;100.00
34586;BME280;20816;50.950;11.108;2023-08-20T07:49:39;99065.19;;;24.69;100.00
34586;BME280;20816;50.950;11.108;2023-08-20T07:52:08;99077.25;;;24.38;100.00
34586;BME280;20816;50.950;11.108;2023-08-20T07:54:35;99077.88;;;24.29;100.00
34586;BME280;20816;50.950;11.108;2023-08-20T07:57:02;99077.47;;;24.48;100.00
34586;BME280;20816;50.950;11.108;2023-08-20T07:59:29;99070.75;;;24.66;100.00
34586;BME280;20816;50.950;11.108;2023-08-20T08:01:56;99066.88;;;24.70;100.00
34586;BME280;20816;50.950;11.108;2023-08-20T08:04:22;99054.59;;;24.79;100.00
34586;BME280;20816;50.950;11.108;2023-08-20T08:06:49;99065.50;;;25.14;100.00
34586;BME280;20816;50.950;11.108;2023-08-20T08:09:32;99072.06;;;25.58;99.65
34586;BME280;20816;50.950;11.108;2023-08-20T08:11:59;99071.56;;;25.53;98.97
34586;BME280;20816;50.950;11.108;2023-08-20T08:14:26;99081.97;;;25.81;98.17
34586;BME280;20816;50.950;11.108;2023-08-20T08:16:53;99086.22;;;26.08;95.78
34586;BME280;20816;50.950;11.108;2023-08-20T08:19:21;99090.69;;;25.85;96.14
34586;BME280;20816;50.950;11.108;2023-08-20T08:21:48;99093.66;;;25.69;97.78
34586;BME280;20816;50.950;11.108;2023-08-20T08:24:15;99098.34;;;25.30;99.58
34586;BME280;20816;50.950;11.108;2023-08-20T08:26:42;99091.56;;;25.01;100.00
34586;BME280;20816;50.950;11.108;2023-08-20T08:29:08;99090.50;;;24.91;100.00
34586;BME280;20816;50.950;11.108;2023-08-20T08:31:36;99098.53;;;24.54;100.00
34586;BME280;20816;50.950;11.108;2023-08-20T08:34:03;99102.72;;;24.32;100.00
34586;BME280;20816;50.950;11.108;2023-08-20T08:36:30;99113.66;;;24.29;100.00
34586;BME280;20816;50.950;11.108;2023-08-20T08:38:57;99109.44;;;24.25;100.00
34586;BME280;20816;50.950;11.108;2023-08-20T08:41:25;99097.00;;;24.24;100.00
34586;BME280;20816;50.950;11.108;2023-08-20T08:43:53;99103.00;;;24.15;100.00
34586;BME280;20816;50.950;11.108;2023-08-20T08:46:22;99110.50;;;24.10;100.00
34586;BME280;20816;50.950;11.108;2023-08-20T08:48:51;99100.88;;;24.20;100.00
34586;BME280;20816;50.950;11.108;2023-08-20T08:51:19;99103.66;;;24.06;100.00
34586;BME280;20816;50.950;11.108;2023-08-20T08:53:46;99101.06;;;24.17;100.00
34586;BME280;20816;50.950;11.108;2023-08-20T08:56:13;99096.16;;;24.11;100.00
34586;BME280;20816;50.950;11.108;2023-08-20T08:58:39;99094.72;;;24.18;100.00
34586;BME280;20816;50.950;11.108;2023-08-20T09:01:06;99078.94;;;24.26;100.00
34586;BME280;20816;50.950;11.108;2023-08-20T09:03:34;99086.06;;;24.27;100.00
34586;BME280;20816;50.950;11.108;2023-08-20T09:06:02;99078.44;;;24.47;100.00
34586;BME280;20816;50.950;11.108;2023-08-20T09:08:34;99081.97;;;24.60;100.00
34586;BME280;20816;50.950;11.108;2023-08-20T09:11:01;99078.69;;;24.68;100.00
34586;BME280;20816;50.950;11.108;2023-08-20T09:13:36;99081.91;;;24.85;100.00
34586;BME280;20816;50.950;11.108;2023-08-20T09:16:08;99089.22;;;24.83;100.00
34586;BME280;20816;50.950;11.108;2023-08-20T09:18:45;99090.78;;;24.62;100.00
34586;BME280;20816;50.950;11.108;2023-08-20T09:21:13;99083.88;;;24.58;100.00
34586;BME280;20816;50.950;11.108;2023-08-20T09:23:40;99092.06;;;24.69;100.00
34586;BME280;20816;50.950;11.108;2023-08-20T09:26:07;99085.16;;;24.65;100.00
34586;BME280;20816;50.950;11.108;2023-08-20T09:28:41;99088.84;;;24.64;100.00
34586;BME280;20816;50.950;11.108;2023-08-20T09:31:09;99086.44;;;24.72;100.00
34586;BME280;20816;50.950;11.108;2023-08-20T09:33:48;99091.75;;;24.61;100.00
34586;BME280;20816;50.950;11.108;2023-08-20T09:36:16;99082.28;;;24.55;100.00
34586;BME280;20816;50.950;11.108;2023-08-20T09:38:43;99080.59;;;24.91;100.00
34586;BME280;20816;50.950;11.108;2023-08-20T09:41:11;99074.81;;;25.21;100.00
34586;BME280;20816;50.950;11.108;2023-08-20T09:43:39;99077.75;;;25.18;100.00
34586;BME280;20816;50.950;11.108;2023-08-20T09:46:07;99066.47;;;25.37;100.00
34586;BME280;20816;50.950;11.108;2023-08-20T09:48:38;99063.03;;;25.35;99.71
34586;BME280;20816;50.950;11.108;2023-08-20T09:51:10;99065.84;;;25.33;100.00
34586;BME280;20816;50.950;11.108;2023-08-20T09:53:49;99052.69;;;25.41;99.87
34586;BME280;20816;50.950;11.108;2023-08-20T09:56:38;99060.78;;;25.53;100.00
34586;BME280;20816;50.950;11.108;2023-08-20T09:59:05;99066.50;;;25.72;97.11
34586;BME280;20816;50.950;11.108;2023-08-20T10:01:34;99063.16;;;25.92;97.76
34586;BME280;20816;50.950;11.108;2023-08-20T10:04:01;99059.41;;;26.28;93.83
34586;BME280;20816;50.950;11.108;2023-08-20T10:06:29;99065.44;;;26.54;92.14
34586;BME280;20816;50.950;11.108;2023-08-20T10:08:57;99069.63;;;26.47;92.23
34586;BME280;20816;50.950;11.108;2023-08-20T10:11:24;99058.66;;;26.38;93.91
34586;BME280;20816;50.950;11.108;2023-08-20T10:13:51;99055.13;;;26.37;92.96
34586;BME280;20816;50.950;11.108;2023-08-20T10:16:18;99055.91;;;26.50;92.66
34586;BME280;20816;50.950;11.108;2023-08-20T10:18:50;99056.00;;;26.71;91.66
34586;BME280;20816;50.950;11.108;2023-08-20T10:21:17;99054.91;;;26.74;91.73
34586;BME280;20816;50.950;11.108;2023-08-20T10:23:48;99059.53;;;26.83;92.01
34586;BME280;20816;50.950;11.108;2023-08-20T10:26:15;99056.09;;;27.15;90.01
34586;BME280;20816;50.950;11.108;2023-08-20T10:28:43;99052.13;;;27.30;88.76
34586;BME280;20816;50.950;11.108;2023-08-20T10:31:12;99054.59;;;27.22;87.55
34586;BME280;20816;50.950;11.108;2023-08-20T10:33:49;99059.03;;;27.00;87.90
34586;BME280;20816;50.950;11.108;2023-08-20T10:36:21;99058.28;;;26.98;88.55
34586;BME280;20816;50.950;11.108;2023-08-20T10:39:04;99060.22;;;27.19;87.18
34586;BME280;20816;50.950;11.108;2023-08-20T10:41:31;99058.38;;;27.30;87.17
34586;BME280;20816;50.950;11.108;2023-08-20T10:44:00;99053.81;;;27.31;85.88
34586;BME280;20816;50.950;11.108;2023-08-20T10:46:28;99056.03;;;27.37;86.50
34586;BME280;20816;50.950;11.108;2023-08-20T10:49:00;99050.34;;;27.40;87.17
34586;BME280;20816;50.950;11.108;2023-08-20T10:51:28;99052.66;;;27.45;87.09
34586;BME280;20816;50.950;11.108;2023-08-20T10:59:07;99040.63;;;27.49;87.32
34586;BME280;20816;50.950;11.108;2023-08-20T11:01:35;99050.38;;;27.61;85.45
34586;BME280;20816;50.950;11.108;2023-08-20T11:04:02;99042.84;;;27.76;85.79
34586;BME280;20816;50.950;11.108;2023-08-20T11:06:33;99033.09;;;28.05;85.42
34586;BME280;20816;50.950;11.108;2023-08-20T11:09:01;99034.75;;;28.48;82.11
34586;BME280;20816;50.950;11.108;2023-08-20T11:11:30;99038.59;;;28.86;81.10
34586;BME280;20816;50.950;11.108;2023-08-20T11:14:05;99037.66;;;29.06;79.34
34586;BME280;20816;50.950;11.108;2023-08-20T11:16:34;99032.00;;;29.28;78.92
34586;BME280;20816;50.950;11.108;2023-08-20T11:19:04;99035.84;;;29.36;78.27
34586;BME280;20816;50.950;11.108;2023-08-20T11:21:37;99033.31;;;29.53;77.64
34586;BME280;20816;50.950;11.108;2023-08-20T11:24:05;99023.84;;;30.06;77.42
34586;BME280;20816;50.950;11.108;2023-08-20T11:26:37;99024.22;;;30.67;75.27
34586;BME280;20816;50.950;11.108;2023-08-20T11:29:15;99018.50;;;30.61;74.89
34586;BME280;20816;50.950;11.108;2023-08-20T11:31:49;99023.59;;;31.29;72.70
34586;BME280;20816;50.950;11.108;2023-08-20T11:34:18;99029.53;;;31.14;72.83
34586;BME280;20816;50.950;11.108;2023-08-20T11:36:45;99026.47;;;31.17;71.91
34586;BME280;20816;50.950;11.108;2023-08-20T11:39:13;99022.91;;;31.44;70.88
34586;BME280;20816;50.950;11.108;2023-08-20T11:41:40;99029.53;;;30.22;73.79
34586;BME280;20816;50.950;11.108;2023-08-20T11:44:10;99019.22;;;30.26;75.34
34586;BME280;20816;50.950;11.108;2023-08-20T11:46:44;99018.09;;;30.19;74.66
34586;BME280;20816;50.950;11.108;2023-08-20T11:49:12;99014.97;;;30.23;75.22
34586;BME280;20816;50.950;11.108;2023-08-20T11:51:47;99012.41;;;30.12;76.01
34586;BME280;20816;50.950;11.108;2023-08-20T11:54:17;99007.03;;;29.93;76.11
34586;BME280;20816;50.950;11.108;2023-08-20T11:56:49;99003.78;;;30.63;74.63
34586;BME280;20816;50.950;11.108;2023-08-20T11:59:20;99008.16;;;31.29;72.05
34586;BME280;20816;50.950;11.108;2023-08-20T12:01:51;99010.31;;;31.79;70.21
34586;BME280;20816;50.950;11.108;2023-08-20T12:04:18;99007.25;;;31.82;69.13
34586;BME280;20816;50.950;11.108;2023-08-20T12:07:04;99012.22;;;31.87;70.42
34586;BME280;20816;50.950;11.108;2023-08-20T12:09:32;98995.78;;;32.22;68.97
34586;BME280;20816;50.950;11.108;2023-08-20T12:12:00;99007.59;;;32.99;67.60
34586;BME280;20816;50.950;11.108;2023-08-20T12:14:27;98991.59;;;33.21;67.33
34586;BME280;20816;50.950;11.108;2023-08-20T12:16:54;98993.00;;;33.33;66.28
34586;BME280;20816;50.950;11.108;2023-08-20T12:19:22;98987.69;;;32.73;67.02
34586;BME280;20816;50.950;11.108;2023-08-20T12:21:49;98986.44;;;32.25;67.86
34586;BME280;20816;50.950;11.108;2023-08-20T12:24:17;98986.78;;;32.22;69.10
34586;BME280;20816;50.950;11.108;2023-08-20T12:26:46;98983.66;;;32.77;67.85
34586;BME280;20816;50.950;11.108;2023-08-20T12:29:13;98976.91;;;32.97;66.61
34586;BME280;20816;50.950;11.108;2023-08-20T12:31:40;98972.50;;;33.12;65.73
34586;BME280;20816;50.950;11.108;2023-08-20T12:34:08;98975.75;;;32.66;67.04
34586;BME280;20816;50.950;11.108;2023-08-20T12:36:35;98968.22;;;32.43;68.31
34586;BME280;20816;50.950;11.108;2023-08-20T12:39:03;98961.81;;;32.60;69.40
34586;BME280;20816;50.950;11.108;2023-08-20T12:41:31;98960.91;;;32.94;66.94
34586;BME280;20816;50.950;11.108;2023-08-20T12:43:58;98957.06;;;32.71;67.91
34586;BME280;20816;50.950;11.108;2023-08-20T12:46:25;98956.16;;;32.54;67.32
34586;BME280;20816;50.950;11.108;2023-08-20T12:48:52;98956.41;;;32.08;69.38
34586;BME280;20816;50.950;11.108;2023-08-20T12:51:19;98952.38;;;32.13;69.61
34586;BME280;20816;50.950;11.108;2023-08-20T12:53:47;98956.16;;;32.54;69.38
34586;BME280;20816;50.950;11.108;2023-08-20T12:56:14;98961.16;;;32.67;68.47
34586;BME280;20816;50.950;11.108;2023-08-20T12:58:42;98956.69;;;32.23;68.86